Time;durP1;ratioP1;P1;durP2;ratioP2;P2;SDS_P1;SDS_P2;PMS_P1;PMS_P2;Temp;Humidity;BMP_temperature;BMP_pressure;BME280_temperature;BME280_humidity;BME280_pressure;Samples;Min_cycle;Max_cycle;Signal;HPM_P1;HPM_P2
2021/08/30 06:43:00;;;;;;;18.57;13.48;;;;;;;14.29;100.00;97405.91;1890817;76;22716;-67
2021/08/30 06:45:28;;;;;;;10.63;9.50;;;;;;;14.27;100.00;97399.27;1861645;77;21528;-65
2021/08/30 06:47:56;;;;;;;8.33;6.53;;;;;;;14.33;100.00;97397.98;1861482;77;21100;-64
2021/08/30 06:50:25;;;;;;;7.00;5.95;;;;;;;14.41;100.00;97395.78;1861585;77;21232;-63
2021/08/30 06:52:56;;;;;;;6.03;5.42;;;;;;;14.53;100.00;97392.36;1855683;77;20995;-69
2021/08/30 06:55:25;;;;;;;6.00;4.65;;;;;;;14.65;100.00;97399.16;1839010;77;21374;-64
2021/08/30 06:57:54;;;;;;;7.28;5.58;;;;;;;14.80;100.00;97397.19;1842163;78;21318;-64
2021/08/30 07:00:22;;;;;;;5.85;4.85;;;;;;;14.91;100.00;97392.39;1842017;78;21202;-62
2021/08/30 07:02:51;;;;;;;5.58;4.50;;;;;;;15.03;100.00;97387.05;1847461;77;20958;-63
2021/08/30 07:05:19;;;;;;;6.42;4.47;;;;;;;15.11;100.00;97392.13;1853269;77;21034;-62
2021/08/30 07:07:49;;;;;;;4.80;4.40;;;;;;;15.22;100.00;97393.27;1830317;77;20919;-67
2021/08/30 07:10:19;;;;;;;5.20;4.20;;;;;;;15.35;100.00;97395.44;1826526;78;20982;-64
2021/08/30 07:12:48;;;;;;;3.87;3.47;;;;;;;15.49;100.00;97399.43;1827321;77;21673;-61
2021/08/30 07:15:17;;;;;;;4.33;3.92;;;;;;;15.58;100.00;97400.11;1818423;77;20886;-65
2021/08/30 07:17:46;;;;;;;4.37;3.65;;;;;;;15.65;100.00;97396.30;1818613;79;20886;-61
2021/08/30 07:20:15;;;;;;;5.37;4.83;;;;;;;15.73;100.00;97398.08;1818486;78;20890;-62
2021/08/30 07:22:43;;;;;;;6.42;4.42;;;;;;;15.76;100.00;97402.02;1818853;79;20929;-61
2021/08/30 07:25:12;;;;;;;5.15;4.33;;;;;;;15.76;100.00;97410.12;1818449;79;21060;-67
2021/08/30 07:27:41;;;;;;;6.10;3.72;;;;;;;15.80;100.00;97417.80;1826720;78;20985;-61
2021/08/30 07:30:10;;;;;;;5.55;4.35;;;;;;;15.81;100.00;97428.00;1851621;77;21360;-63
2021/08/30 07:32:39;;;;;;;4.78;4.37;;;;;;;15.77;100.00;97435.21;1861351;77;20899;-61
2021/08/30 07:35:09;;;;;;;4.85;4.37;;;;;;;15.72;100.00;97430.82;1845835;77;20962;-66
2021/08/30 07:37:38;;;;;;;4.90;4.40;;;;;;;15.68;100.00;97421.83;1823430;78;21098;-65
2021/08/30 07:40:07;;;;;;;4.17;3.77;;;;;;;15.62;100.00;97419.11;1822190;78;20911;-63
2021/08/30 07:42:36;;;;;;;4.75;4.28;;;;;;;15.63;100.00;97417.44;1818309;77;20940;-66
2021/08/30 07:45:07;;;;;;;4.53;4.15;;;;;;;15.69;100.00;97422.03;1813821;79;21228;-60
2021/08/30 07:47:37;;;;;;;4.83;4.35;;;;;;;15.75;100.00;97424.76;1815457;79;20915;-67
2021/08/30 07:50:07;;;;;;;4.50;4.10;;;;;;;15.76;100.00;97423.62;1815098;79;21075;-63
2021/08/30 07:52:35;;;;;;;5.53;4.20;;;;;;;15.68;100.00;97415.08;1815204;79;21431;-65
2021/08/30 07:55:05;;;;;;;6.28;4.22;;;;;;;15.65;100.00;97419.80;1814362;79;20958;-61
2021/08/30 07:57:33;;;;;;;5.22;4.33;;;;;;;15.67;100.00;97425.09;1757704;79;21059;-65
2021/08/30 08:00:05;;;;;;;5.33;4.00;;;;;;;15.70;100.00;97428.47;1799130;78;20927;-65
2021/08/30 08:02:36;;;;;;;4.40;4.00;;;;;;;15.76;99.84;97437.12;1773234;80;21127;-65
2021/08/30 08:05:07;;;;;;;4.08;3.67;;;;;;;15.81;99.33;97434.20;1782189;80;20919;-64
2021/08/30 08:07:35;;;;;;;4.22;3.67;;;;;;;15.80;98.59;97435.34;1782685;80;21498;-61
2021/08/30 08:10:07;;;;;;;3.77;3.45;;;;;;;15.76;98.26;97443.10;1821291;78;20920;-66
2021/08/30 08:12:36;;;;;;;4.42;3.90;;;;;;;15.71;98.12;97434.64;1782794;80;21462;-65
2021/08/30 08:15:09;;;;;;;4.28;3.67;;;;;;;15.73;98.23;97443.21;1821340;78;21032;-67
2021/08/30 08:17:39;;;;;;;3.80;3.50;;;;;;;15.80;97.77;97448.84;1781678;80;21135;-67
2021/08/30 08:20:10;;;;;;;4.20;3.77;;;;;;;15.82;97.36;97454.69;1809614;77;20992;-64
2021/08/30 08:22:39;;;;;;;4.37;3.30;;;;;;;15.82;97.17;97456.04;1821432;78;21540;-67
2021/08/30 08:25:09;;;;;;;3.37;3.08;;;;;;;15.83;97.11;97448.15;1780988;80;21001;-64
2021/08/30 08:27:37;;;;;;;5.05;3.60;;;;;;;15.84;96.73;97451.64;1771266;79;21664;-64
2021/08/30 08:30:11;;;;;;;4.65;4.15;;;;;;;15.85;96.39;97456.70;1789260;80;20945;-66
2021/08/30 08:32:41;;;;;;;3.75;3.45;;;;;;;15.85;95.74;97452.64;1769797;80;21003;-68
2021/08/30 08:35:13;;;;;;;4.25;3.40;;;;;;;15.85;95.91;97448.59;1795577;78;20943;-65
2021/08/30 08:37:42;;;;;;;4.50;3.37;;;;;;;15.92;95.65;97446.13;1794314;77;20963;-64
2021/08/30 08:40:12;;;;;;;5.60;4.00;;;;;;;16.02;95.54;97453.78;1809182;78;21095;-64
2021/08/30 08:42:41;;;;;;;5.42;3.72;;;;;;;16.10;95.02;97440.73;1748598;80;20977;-65
2021/08/30 08:45:12;;;;;;;5.00;3.30;;;;;;;16.15;94.77;97436.46;1815275;77;20982;-64
2021/08/30 08:47:41;;;;;;;3.55;3.25;;;;;;;16.20;93.89;97438.14;1813618;77;21530;-65
2021/08/30 08:50:11;;;;;;;4.10;3.60;;;;;;;16.23;93.53;97438.23;1838439;78;21010;-66
2021/08/30 08:52:46;;;;;;;5.20;3.90;;;;;;;16.26;93.30;97433.52;1786651;77;21067;-66
2021/08/30 08:55:15;;;;;;;5.03;3.42;;;;;;;16.30;92.79;97434.40;1784377;80;28607;-67
2021/08/30 08:57:45;;;;;;;4.22;3.67;;;;;;;16.38;92.70;97433.50;1785170;80;20882;-64
2021/08/30 09:00:19;;;;;;;3.92;3.55;;;;;;;16.41;92.23;97431.47;1811493;77;20877;-64
2021/08/30 09:02:52;;;;;;;3.25;2.95;;;;;;;16.43;92.19;97429.21;1832929;78;20955;-63
2021/08/30 09:05:23;;;;;;;3.77;3.17;;;;;;;16.49;92.20;97427.63;1792287;78;21243;-64
2021/08/30 09:07:52;;;;;;;5.40;3.02;;;;;;;16.58;91.67;97423.66;1837127;77;21002;-69
2021/08/30 09:10:25;;;;;;;2.92;2.62;;;;;;;16.63;91.67;97421.31;1826989;78;21081;-64
2021/08/30 09:12:54;;;;;;;2.83;2.55;;;;;;;16.64;90.67;97416.91;1831305;78;21098;-65
2021/08/30 09:15:28;;;;;;;3.33;2.80;;;;;;;16.61;90.11;97420.84;1795732;78;20967;-66
2021/08/30 09:17:55;;;;;;;2.80;2.60;;;;;;;16.57;89.66;97405.09;1809706;78;21291;-63
2021/08/30 09:20:26;;;;;;;3.37;2.40;;;;;;;16.53;89.70;97405.56;1821683;78;21008;-68
2021/08/30 09:22:55;;;;;;;3.30;2.55;;;;;;;16.59;89.73;97385.26;1821919;78;21050;-67
2021/08/30 09:25:24;;;;;;;3.62;3.10;;;;;;;16.66;89.61;97382.20;1807407;78;21052;-68
2021/08/30 09:27:52;;;;;;;4.65;3.33;;;;;;;16.70;89.68;97408.00;1756480;79;20948;-66
2021/08/30 09:30:29;;;;;;;3.67;3.37;;;;;;;16.72;89.42;97419.25;1783046;79;21733;-65
2021/08/30 09:32:58;;;;;;;3.77;3.35;;;;;;;16.69;89.02;97415.31;1804185;79;21554;-69
2021/08/30 09:35:29;;;;;;;4.10;3.70;;;;;;;16.75;89.32;97395.56;1775649;79;21006;-71
2021/08/30 09:37:58;;;;;;;3.62;3.17;;;;;;;16.89;89.60;97390.55;1775282;79;21059;-66
2021/08/30 09:40:29;;;;;;;3.67;3.20;;;;;;;17.01;88.81;97385.08;1775910;79;21021;-66
2021/08/30 09:42:59;;;;;;;3.87;2.60;;;;;;;17.16;88.80;97393.80;1808027;78;21062;-65
2021/08/30 09:45:28;;;;;;;4.47;2.80;;;;;;;17.30;87.70;97388.76;1738880;82;20935;-66
2021/08/30 09:48:00;;;;;;;4.75;2.62;;;;;;;17.38;86.81;97383.73;1769676;81;20853;-65
2021/08/30 09:50:39;;;;;;;3.05;2.80;;;;;;;17.44;86.35;97386.97;1772686;80;21007;-66
2021/08/30 09:53:07;;;;;;;3.12;2.85;;;;;;;17.45;85.65;97383.91;1788542;80;20888;-69
2021/08/30 09:55:39;;;;;;;2.87;2.67;;;;;;;17.37;85.52;97384.88;1755058;81;20936;-64
2021/08/30 09:58:17;;;;;;;2.40;2.20;;;;;;;17.31;85.68;97388.96;1825324;78;20872;-66
2021/08/30 10:00:46;;;;;;;2.87;2.27;;;;;;;17.29;85.71;97388.53;1813313;77;20951;-69
2021/08/30 10:03:16;;;;;;;3.10;2.52;;;;;;;17.28;85.91;97391.03;1810171;79;20975;-67
2021/08/30 10:05:44;;;;;;;2.52;2.10;;;;;;;17.31;86.08;97391.67;1809659;79;20998;-65
2021/08/30 10:08:16;;;;;;;2.00;1.80;;;;;;;17.40;85.78;97388.25;1810036;79;21083;-65
2021/08/30 10:10:46;;;;;;;1.60;1.50;;;;;;;17.44;85.76;97386.41;1810010;79;20975;-66
2021/08/30 10:13:18;;;;;;;1.50;1.40;;;;;;;17.44;84.88;97395.89;1809944;79;21051;-65
2021/08/30 10:15:52;;;;;;;1.77;1.50;;;;;;;17.50;84.46;97390.42;1781931;79;20939;-65
2021/08/30 10:18:22;;;;;;;2.85;1.87;;;;;;;17.52;83.88;97394.95;1810132;79;20970;-64
2021/08/30 10:20:54;;;;;;;2.85;1.30;;;;;;;17.46;83.89;97400.38;1811130;79;21062;-65
2021/08/30 10:23:23;;;;;;;1.55;1.12;;;;;;;17.49;83.98;97408.38;1810768;79;20963;-62
2021/08/30 10:25:59;;;;;;;1.92;1.07;;;;;;;17.47;83.14;97397.11;1811103;79;20989;-64
2021/08/30 10:28:45;;;;;;;19.32;5.78;;;;;;;17.47;83.32;97406.03;1810751;79;20888;-64
2021/08/30 10:31:28;;;;;;;2.83;1.90;;;;;;;17.42;83.94;97401.43;1787555;79;20888;-63
2021/08/30 10:33:59;;;;;;;56.77;15.40;;;;;;;17.44;83.82;97393.19;1810970;79;21107;-65
2021/08/30 10:36:29;;;;;;;2.05;1.60;;;;;;;17.52;83.95;97390.88;1813651;77;20982;-65
2021/08/30 10:39:04;;;;;;;2.62;1.52;;;;;;;17.58;83.41;97394.92;1834346;77;20947;-65
2021/08/30 10:41:37;;;;;;;1.60;1.30;;;;;;;17.59;83.70;97401.89;1844236;77;21431;-68
2021/08/30 10:44:21;;;;;;;1.92;1.40;;;;;;;17.63;84.06;97396.02;1841795;77;21389;-65
2021/08/30 10:46:54;;;;;;;2.25;1.57;;;;;;;17.66;84.16;97396.64;1841699;77;21073;-63
2021/08/30 10:49:34;;;;;;;2.75;1.50;;;;;;;17.64;83.58;97409.00;1841223;77;20939;-61
2021/08/30 10:52:13;;;;;;;2.92;1.90;;;;;;;17.59;83.70;97412.72;1840799;77;20904;-62
2021/08/30 10:54:56;;;;;;;1.75;1.40;;;;;;;17.63;84.11;97410.11;1816443;79;21015;-64
2021/08/30 10:57:35;;;;;;;1.35;1.20;;;;;;;17.73;84.51;97411.72;1818154;79;20920;-68
2021/08/30 11:00:09;;;;;;;2.30;1.37;;;;;;;17.90;84.26;97408.45;1817811;77;21110;-69
2021/08/30 11:02:49;;;;;;;4.10;1.27;;;;;;;18.00;83.71;97407.89;1833530;77;20991;-67
2021/08/30 11:05:28;;;;;;;1.60;1.20;;;;;;;18.03;83.15;97409.34;1824365;77;20936;-63
2021/08/30 11:07:57;;;;;;;1.50;1.17;;;;;;;18.16;83.01;97408.68;1854654;77;20927;-63
2021/08/30 11:10:25;;;;;;;1.12;1.02;;;;;;;18.25;82.32;97406.56;1834024;77;21520;-66
2021/08/30 11:12:52;;;;;;;0.98;0.78;;;;;;;18.26;82.18;97410.82;1757312;80;21699;-63
2021/08/30 11:15:19;;;;;;;2.70;1.10;;;;;;;18.25;81.75;97406.56;1769010;80;21087;-63
2021/08/30 11:17:46;;;;;;;1.32;1.22;;;;;;;18.17;81.90;97406.17;1858381;77;20879;-67
2021/08/30 11:20:17;;;;;;;1.27;1.12;;;;;;;18.09;82.25;97411.23;1857996;77;20911;-68
2021/08/30 11:22:53;;;;;;;4.70;1.30;;;;;;;17.98;82.53;97421.80;1858167;77;21430;-64
2021/08/30 11:25:20;;;;;;;1.22;1.10;;;;;;;17.93;82.95;97419.92;1824633;77;22342;-68
2021/08/30 11:27:46;;;;;;;1.55;1.10;;;;;;;17.95;83.18;97423.06;1848533;77;20829;-68
2021/08/30 11:30:14;;;;;;;1.12;1.02;;;;;;;17.98;82.94;97422.37;1793303;78;21473;-68
2021/08/30 11:32:42;;;;;;;1.10;1.00;;;;;;;17.96;82.69;97423.29;1754172;81;20996;-69
2021/08/30 11:35:14;;;;;;;1.77;0.90;;;;;;;17.95;82.72;97424.41;1759413;80;20965;-67
2021/08/30 11:37:41;;;;;;;1.72;0.90;;;;;;;17.87;82.60;97426.75;1767706;80;21707;-64
2021/08/30 11:40:11;;;;;;;3.20;0.90;;;;;;;17.79;82.64;97431.20;1843780;77;20939;-64
2021/08/30 11:42:38;;;;;;;0.90;0.80;;;;;;;17.78;83.14;97434.28;1778629;80;21040;-66
2021/08/30 11:45:10;;;;;;;1.62;0.90;;;;;;;17.79;82.94;97435.27;1808974;78;20967;-67
2021/08/30 11:47:38;;;;;;;2.55;0.90;;;;;;;17.87;82.60;97428.11;1801834;78;20886;-67
2021/08/30 11:50:10;;;;;;;2.33;1.10;;;;;;;18.01;81.86;97428.45;1782752;80;21515;-65
2021/08/30 11:52:41;;;;;;;1.20;1.07;;;;;;;18.15;81.53;97426.86;1808377;79;20869;-67
2021/08/30 11:55:13;;;;;;;1.20;1.10;;;;;;;18.34;81.56;97424.77;1774334;80;20975;-69
2021/08/30 11:57:49;;;;;;;1.20;1.10;;;;;;;18.58;81.09;97423.77;1803802;79;21001;-67
2021/08/30 12:00:22;;;;;;;1.10;1.00;;;;;;;18.86;79.54;97422.99;1759753;80;21525;-67
2021/08/30 12:02:57;;;;;;;2.45;1.15;;;;;;;19.28;78.04;97419.73;1767875;80;21133;-67
2021/08/30 12:05:28;;;;;;;;;;;;;;;19.78;76.95;97417.35;1785735;79;21114;-66
2021/08/30 12:07:55;;;;;;;1.10;0.90;;;;;;;20.27;75.80;97411.34;1739362;82;20110;-67
2021/08/30 12:10:23;;;;;;;1.65;0.80;;;;;;;20.71;73.71;97412.91;1777051;80;21458;-63
2021/08/30 12:12:57;;;;;;;1.25;0.93;;;;;;;21.06;67.59;97416.08;1737418;81;20952;-63
2021/08/30 12:15:26;;;;;;;;;;;;;;;21.28;64.78;97422.55;1780562;80;20857;-65
2021/08/30 12:17:58;;;;;;;0.85;0.72;;;;;;;21.38;66.66;97413.71;1768489;80;20081;-64
2021/08/30 12:20:32;;;;;;;0.80;0.80;;;;;;;21.31;66.21;97421.81;1830290;78;20889;-68
2021/08/30 12:23:03;;;;;;;1.23;0.73;;;;;;;21.05;65.53;97424.63;1830371;78;21474;-63
2021/08/30 12:25:38;;;;;;;1.30;1.00;;;;;;;20.72;65.72;97417.20;1830201;78;20925;-65
2021/08/30 12:28:07;;;;;;;1.80;1.12;;;;;;;20.75;66.70;97421.12;1832825;77;21712;-63
2021/08/30 12:30:39;;;;;;;1.17;0.98;;;;;;;20.93;65.68;97418.83;1817620;78;20960;-64
2021/08/30 12:33:09;;;;;;;1.57;1.02;;;;;;;21.08;65.76;97417.06;1794997;77;20837;-66
2021/08/30 12:35:43;;;;;;;1.00;0.93;;;;;;;21.16;66.40;97422.80;1827032;77;21434;-66
2021/08/30 12:38:22;;;;;;;0.70;0.70;;;;;;;21.24;65.54;97426.39;1752595;80;20968;-64
2021/08/30 12:40:55;;;;;;;1.47;0.78;;;;;;;21.32;65.55;97424.72;1736501;82;21127;-65
2021/08/30 12:43:22;;;;;;;1.17;0.85;;;;;;;21.29;64.37;97432.27;1745138;81;21560;-64
2021/08/30 12:45:49;;;;;;;0.98;0.70;;;;;;;21.15;64.53;97428.62;1745912;82;21010;-64
2021/08/30 12:48:18;;;;;;;1.27;0.80;;;;;;;20.97;64.98;97426.45;1745842;82;21050;-62
2021/08/30 12:50:46;;;;;;;0.62;0.62;;;;;;;20.81;65.23;97425.87;1746458;82;20962;-66
2021/08/30 12:53:13;;;;;;;0.68;0.60;;;;;;;20.99;65.47;97426.06;1746495;82;21503;-65
2021/08/30 12:55:40;;;;;;;1.07;0.57;;;;;;;21.42;65.90;97426.78;1746860;82;20932;-66
2021/08/30 12:58:07;;;;;;;0.80;0.72;;;;;;;21.68;64.47;97421.20;1747657;82;21423;-65
2021/08/30 13:00:36;;;;;;;1.92;0.60;;;;;;;21.75;63.48;97414.45;1757079;80;21022;-63
2021/08/30 13:03:03;;;;;;;2.05;0.53;;;;;;;21.82;63.00;97412.35;1819975;77;20914;-66
2021/08/30 13:05:35;;;;;;;0.95;0.70;;;;;;;21.97;62.48;97411.92;1826690;78;21118;-69
2021/08/30 13:07:59;;;;;;;6.17;0.62;;;;;;;22.12;61.02;97413.00;1821751;77;20978;-64
2021/08/30 13:10:26;;;;;;;1.37;0.60;;;;;;;22.15;58.91;97410.09;1822047;78;21359;-64
2021/08/30 13:12:53;;;;;;;1.05;0.50;;;;;;;22.28;59.20;97412.73;1764605;80;21103;-62
2021/08/30 13:15:22;;;;;;;0.55;0.53;;;;;;;22.34;59.15;97407.11;1837076;78;21014;-67
2021/08/30 13:17:49;;;;;;;2.12;0.53;;;;;;;22.22;58.45;97409.57;1768420;80;21123;-66
2021/08/30 13:20:16;;;;;;;0.50;0.50;;;;;;;22.00;59.58;97414.66;1804448;79;20974;-64
2021/08/30 13:22:43;;;;;;;1.27;0.55;;;;;;;22.06;59.65;97415.89;1800442;79;21016;-65
2021/08/30 13:25:13;;;;;;;0.57;0.50;;;;;;;22.21;59.60;97407.99;1779984;79;21094;-67
2021/08/30 13:27:46;;;;;;;1.30;0.70;;;;;;;22.55;59.36;97407.23;1779710;79;21507;-63
2021/08/30 13:30:14;;;;;;;0.60;0.55;;;;;;;22.81;58.67;97401.54;1784691;79;21697;-63
2021/08/30 13:32:42;;;;;;;0.60;0.60;;;;;;;23.00;57.89;97406.69;1779749;79;21648;-67
2021/08/30 13:35:10;;;;;;;0.60;0.60;;;;;;;22.90;56.79;97401.96;1782443;79;21009;-67
2021/08/30 13:37:38;;;;;;;1.65;0.60;;;;;;;22.88;55.99;97401.56;1778005;79;21083;-65
2021/08/30 13:40:07;;;;;;;0.40;0.40;;;;;;;22.84;56.82;97411.70;1786445;79;21466;-63
2021/08/30 13:42:35;;;;;;;1.05;0.60;;;;;;;22.93;57.85;97402.56;1801462;79;21705;-63
2021/08/30 13:45:02;;;;;;;1.65;0.57;;;;;;;23.20;55.95;97412.58;1803421;79;20964;-63
2021/08/30 13:47:28;;;;;;;2.98;0.62;;;;;;;23.46;54.52;97407.43;1758533;80;21030;-64
2021/08/30 13:49:55;;;;;;;1.20;0.60;;;;;;;23.61;54.74;97417.20;1824289;78;20983;-64
2021/08/30 13:52:23;;;;;;;0.80;0.60;;;;;;;23.60;52.51;97416.41;1824318;78;20883;-64
2021/08/30 13:54:51;;;;;;;0.90;0.68;;;;;;;23.67;52.84;97417.02;1824427;78;21100;-65
2021/08/30 13:57:18;;;;;;;0.60;0.50;;;;;;;23.87;53.60;97414.67;1823025;78;20962;-64
2021/08/30 13:59:47;;;;;;;1.05;0.50;;;;;;;24.03;54.01;97424.63;1823394;78;20887;-64
2021/08/30 14:02:14;;;;;;;0.75;0.60;;;;;;;24.23;51.87;97425.25;1824134;78;20927;-64
2021/08/30 14:04:41;;;;;;;3.98;0.70;;;;;;;24.46;52.11;97411.92;1824731;78;21595;-64
2021/08/30 14:07:09;;;;;;;1.85;0.85;;;;;;;24.79;52.13;97415.36;1824449;78;21118;-63
2021/08/30 14:09:37;;;;;;;1.35;0.50;;;;;;;24.97;51.84;97411.38;1824533;78;20962;-62
2021/08/30 14:12:05;;;;;;;0.60;0.50;;;;;;;25.10;50.53;97417.20;1824478;78;20915;-66
2021/08/30 14:14:34;;;;;;;1.07;0.55;;;;;;;25.19;48.58;97416.75;1824433;78;20923;-63
2021/08/30 14:17:02;;;;;;;1.22;0.53;;;;;;;25.16;48.11;97418.33;1824525;78;20970;-61
2021/08/30 14:19:29;;;;;;;1.12;0.62;;;;;;;24.99;48.48;97422.71;1824434;78;21114;-64
2021/08/30 14:21:56;;;;;;;2.22;0.62;;;;;;;25.01;47.97;97420.35;1824352;78;20915;-63
2021/08/30 14:24:23;;;;;;;1.50;0.70;;;;;;;25.06;47.75;97418.57;1824295;78;20875;-63
2021/08/30 14:26:50;;;;;;;2.33;0.50;;;;;;;25.08;48.41;97422.30;1824445;78;21007;-63
2021/08/30 14:29:17;;;;;;;1.85;0.50;;;;;;;24.96;48.54;97418.63;1823791;78;20997;-63
2021/08/30 14:31:43;;;;;;;0.57;0.57;;;;;;;24.84;49.25;97432.18;1824517;78;21115;-64
2021/08/30 14:34:11;;;;;;;2.10;0.78;;;;;;;24.90;48.69;97432.53;1824298;78;20927;-64
2021/08/30 14:36:38;;;;;;;0.50;0.50;;;;;;;25.05;49.25;97432.68;1824506;78;21454;-64
2021/08/30 14:39:05;;;;;;;1.75;0.78;;;;;;;25.12;47.77;97438.13;1824471;78;20927;-62
2021/08/30 14:41:31;;;;;;;2.40;0.80;;;;;;;24.85;48.36;97438.41;1824399;78;21000;-62
2021/08/30 14:43:58;;;;;;;1.87;0.68;;;;;;;24.48;49.86;97441.04;1756670;80;21128;-62
2021/08/30 14:46:25;;;;;;;1.07;0.70;;;;;;;24.10;50.71;97445.96;1789208;80;20915;-64
2021/08/30 14:48:52;;;;;;;0.60;0.60;;;;;;;23.63;51.11;97449.02;1789258;79;20880;-62
2021/08/30 14:51:19;;;;;;;1.12;0.50;;;;;;;23.07;51.70;97450.98;1789144;79;20939;-62
2021/08/30 14:53:46;;;;;;;1.07;0.75;;;;;;;22.52;53.36;97444.83;1789334;80;21396;-62
2021/08/30 14:56:13;;;;;;;0.62;0.60;;;;;;;22.08;54.33;97450.95;1789276;79;21106;-62
2021/08/30 14:58:40;;;;;;;1.12;0.57;;;;;;;22.02;55.63;97453.84;1789238;79;21514;-63
2021/08/30 15:01:07;;;;;;;2.30;0.70;;;;;;;22.07;55.76;97456.22;1789276;79;20868;-66
2021/08/30 15:03:34;;;;;;;3.12;0.80;;;;;;;22.13;55.77;97459.58;1789291;80;20955;-64
2021/08/30 15:06:01;;;;;;;2.62;0.80;;;;;;;22.32;55.85;97458.55;1789384;79;20943;-63
2021/08/30 15:08:29;;;;;;;1.20;0.80;;;;;;;22.51;55.89;97460.22;1789441;80;21498;-64
2021/08/30 15:10:57;;;;;;;1.15;0.70;;;;;;;22.69;55.78;97463.86;1789335;79;20899;-63
2021/08/30 15:13:24;;;;;;;1.98;0.80;;;;;;;23.01;55.40;97466.19;1789369;80;20889;-66
2021/08/30 15:15:51;;;;;;;1.25;0.70;;;;;;;23.37;53.17;97463.02;1789390;80;21482;-66
2021/08/30 15:18:18;;;;;;;0.93;0.68;;;;;;;23.49;52.13;97466.18;1789456;80;20844;-63
2021/08/30 15:20:44;;;;;;;1.15;0.62;;;;;;;23.64;50.65;97467.00;1789433;79;21116;-63
2021/08/30 15:23:12;;;;;;;1.15;0.80;;;;;;;23.70;49.85;97473.06;1789297;80;20924;-63
2021/08/30 15:25:39;;;;;;;2.98;0.80;;;;;;;23.85;49.20;97477.18;1789500;79;20920;-64
2021/08/30 15:28:07;;;;;;;1.98;0.70;;;;;;;23.90;49.34;97474.85;1789396;80;20876;-64
2021/08/30 15:30:33;;;;;;;1.85;0.60;;;;;;;24.13;48.91;97475.28;1789718;79;20868;-63
2021/08/30 15:33:01;;;;;;;1.35;0.72;;;;;;;24.31;47.97;97476.05;1789397;79;21110;-64
2021/08/30 15:35:28;;;;;;;1.15;0.70;;;;;;;24.55;48.91;97477.78;1789423;80;20861;-62
2021/08/30 15:37:54;;;;;;;1.42;0.60;;;;;;;24.49;48.08;97476.05;1789400;80;20873;-64
2021/08/30 15:40:22;;;;;;;0.68;0.60;;;;;;;24.17;47.29;97480.16;1789381;80;20983;-64
2021/08/30 15:42:49;;;;;;;0.70;0.60;;;;;;;23.72;47.70;97478.91;1789472;79;20974;-63
2021/08/30 15:45:16;;;;;;;1.32;0.72;;;;;;;23.23;48.72;97480.12;1802230;79;21063;-64
2021/08/30 15:47:44;;;;;;;8.00;0.90;;;;;;;22.70;49.91;97488.06;1805623;79;20893;-64
2021/08/30 15:50:11;;;;;;;2.05;0.68;;;;;;;22.16;50.85;97490.77;1805795;79;21392;-63
2021/08/30 15:52:40;;;;;;;1.25;0.60;;;;;;;21.73;52.03;97487.63;1805639;79;21398;-63
2021/08/30 15:55:08;;;;;;;1.40;0.75;;;;;;;21.39;52.73;97486.09;1805711;79;20841;-63
2021/08/30 15:57:36;;;;;;;1.57;0.80;;;;;;;21.16;53.96;97490.88;1805765;79;21427;-64
2021/08/30 16:00:07;;;;;;;2.75;0.70;;;;;;;21.00;54.19;97497.07;1805521;79;20916;-64
2021/08/30 16:02:34;;;;;;;2.92;0.80;;;;;;;20.80;54.42;97498.34;1805917;79;21116;-62
2021/08/30 16:05:01;;;;;;;2.02;0.80;;;;;;;20.60;55.23;97494.18;1805683;79;20928;-64
2021/08/30 16:07:27;;;;;;;6.03;1.77;;;;;;;20.36;55.92;97492.09;1805711;79;20884;-62
2021/08/30 16:09:54;;;;;;;5.28;2.30;;;;;;;20.16;57.76;97491.92;1805688;79;21162;-61
2021/08/30 16:12:22;;;;;;;9.38;4.03;;;;;;;19.95;60.18;97488.09;1805584;79;20901;-61
2021/08/30 16:14:51;;;;;;;5.45;3.47;;;;;;;19.71;61.61;97490.59;1805651;79;20995;-63
2021/08/30 16:17:19;;;;;;;5.75;3.30;;;;;;;19.46;63.03;97488.77;1805560;79;21006;-63
2021/08/30 16:19:47;;;;;;;1.92;1.82;;;;;;;19.25;64.13;97492.96;1777060;79;20960;-64
2021/08/30 16:22:15;;;;;;;4.30;2.75;;;;;;;19.02;64.86;97495.05;1805994;79;21022;-64
2021/08/30 16:24:41;;;;;;;4.60;3.10;;;;;;;18.80;65.55;97493.02;1805585;79;20928;-65
2021/08/30 16:27:09;;;;;;;5.67;3.25;;;;;;;18.63;66.44;97500.19;1805854;79;21448;-63
2021/08/30 16:29:38;;;;;;;5.55;2.52;;;;;;;18.50;67.18;97502.81;1805637;79;20912;-63
2021/08/30 16:32:06;;;;;;;8.05;2.40;;;;;;;18.40;67.64;97501.96;1805683;79;20849;-64
2021/08/30 16:34:33;;;;;;;3.65;2.27;;;;;;;18.30;68.17;97511.42;1805556;79;21067;-64
2021/08/30 16:37:00;;;;;;;4.78;2.00;;;;;;;18.19;68.72;97513.66;1805581;79;21423;-62
2021/08/30 16:39:27;;;;;;;2.60;1.40;;;;;;;18.09;69.24;97511.50;1805748;79;20833;-62
2021/08/30 16:41:56;;;;;;;5.30;1.20;;;;;;;17.98;69.76;97516.64;1805658;79;20848;-64
2021/08/30 16:44:23;;;;;;;2.70;0.93;;;;;;;17.85;70.17;97517.86;1808494;79;20888;-63
2021/08/30 16:46:49;;;;;;;2.52;1.30;;;;;;;17.72;70.50;97523.91;1815908;79;21059;-62
2021/08/30 16:49:17;;;;;;;3.08;1.77;;;;;;;17.60;70.87;97524.53;1815845;79;20945;-63
2021/08/30 16:51:44;;;;;;;3.17;1.70;;;;;;;17.51;71.34;97524.70;1815910;78;20943;-62
2021/08/30 16:54:12;;;;;;;4.42;1.42;;;;;;;17.43;72.03;97531.02;1815808;78;20924;-64
2021/08/30 16:56:40;;;;;;;6.20;3.15;;;;;;;17.30;72.65;97532.21;1815938;78;20986;-63
2021/08/30 16:59:08;;;;;;;5.25;2.58;;;;;;;17.21;73.15;97534.28;1815943;78;21108;-65
2021/08/30 17:01:35;;;;;;;4.12;2.15;;;;;;;17.13;73.59;97531.13;1815846;79;20841;-64
2021/08/30 17:04:02;;;;;;;2.87;1.45;;;;;;;17.04;74.10;97527.78;1816078;79;20920;-66
2021/08/30 17:06:29;;;;;;;4.72;1.40;;;;;;;16.96;74.51;97528.70;1815865;79;21051;-65
2021/08/30 17:08:56;;;;;;;3.05;1.50;;;;;;;16.88;74.90;97533.69;1815781;79;20872;-64
2021/08/30 17:11:23;;;;;;;3.45;1.55;;;;;;;16.81;75.17;97530.78;1815898;79;21059;-64
2021/08/30 17:13:50;;;;;;;2.72;1.00;;;;;;;16.78;75.60;97534.16;1815800;79;20928;-64
2021/08/30 17:16:17;;;;;;;1.75;1.10;;;;;;;16.71;75.68;97537.44;1815899;79;20907;-61
2021/08/30 17:18:44;;;;;;;5.60;1.00;;;;;;;16.65;75.78;97539.37;1815830;79;20888;-63
2021/08/30 17:21:10;;;;;;;2.08;1.10;;;;;;;16.58;76.03;97539.16;1816155;79;20903;-64
